Nearby METAR Reports

 

KPMD - Palmdale, California, USA
Distance from station: NNE 12mi, 19km
Updated: Sat, 23-Oct-2021 4:53pm PDT
Clear
Clear
 Wind from SW
Wind: SW 18 mph , 30 km/h
Temperature: 66°F , 19°C
Dew Point: 46°F , 8°C
Humidity: 49%
Barometer: 29.84 inHg , 1010.5 hPa
Clouds: Clear
Visibility: 10 miles , 16 km
2021/10/23 23:53 KPMD 232353Z 22016KT 10SM CLR 19/08 A2984 RMK AO2 SLP090 T01890083 10222 20178 56004
KWJF - Lancaster/Fox, California, USA
Distance from station: N 17mi, 27km
Updated: Sat, 23-Oct-2021 4:56pm PDT
Clear
Clear
 Wind from W
Wind: W 26 mph , 43 km/h, Gust: 36 mph , 57 km/h
Temperature: 63°F , 17°C
Dew Point: 39°F , 4°C
Humidity: 42%
Barometer: 29.85 inHg , 1010.8 hPa
Clouds: Clear
Visibility: 10 miles , 16 km
2021/10/23 23:56 KWJF 232356Z 28023G31KT 10SM CLR 17/04 A2985 RMK AO2 PK WND 27033/2303 SLP103 T01720044 10222 20172 51010 $
 
KMWS - Mount Wilson, California, USA
Distance from station: SSE 18mi, 30km
Updated: Wed, 13-May-2015 6:45am PDT
NOT Current

 Wind from S
Wind: S 3 mph , 6 km/h, Gust: 5 mph , 7 km/h
Temperature: 43°F , 6°C
Dew Point: -0°F , -18°C
Humidity: 16%
2015/05/13 13:45 KMWS 131345Z 18003G04KT 06/M18 RMK SNOW DEPTH 1.00
KWHP - La / Whiteman, California, USA
Distance from station: SW 21mi, 34km
Updated: Sat, 23-Oct-2021 4:55pm PDT
Mostly cloudy
Mostly cloudy
 Wind from SSE
Wind: SSE 7 mph , 11 km/h
Temperature: 64°F , 18°C
Dew Point: 54°F , 12°C
Humidity: 68%
Barometer: 29.90 inHg , 1012.5 hPa
Clouds: Mostly cloudy
Visibility: 10 miles , 16 km
Cloud details: Mostly cloudy 3000 ft
2021/10/23 23:55 KWHP 232355Z 15006KT 10SM BKN030 18/12 A2990
 
KBUR - Burbank, California, USA
Distance from station: SSW 22mi, 35km
Updated: Sat, 23-Oct-2021 4:53pm PDT
Mostly cloudy
Mostly cloudy
 Wind from SSW
Wind: SSW 10 mph , 17 km/h
Temperature: 64°F , 18°C
Dew Point: 52°F , 11°C
Humidity: 64%
Barometer: 29.86 inHg , 1011.2 hPa
Clouds: Mostly cloudy
Visibility: 10 miles , 16 km
Cloud details: Mostly cloudy 4700 ft
2021/10/23 23:53 KBUR 232353Z 20009KT 10SM BKN047 18/11 A2986 RMK AO2 SLP101 T01830111 10206 20172 55006 $
KVNY - Van Nuys, California, USA
Distance from station: SW 25mi, 40km
Updated: Sat, 23-Oct-2021 4:51pm PDT
Overcast
Overcast
 Wind from S
Wind: S 10 mph , 17 km/h
Temperature: 66°F , 19°C
Dew Point: 54°F , 12°C
Humidity: 64%
Barometer: 29.85 inHg , 1010.8 hPa
Clouds: Overcast
Visibility: 10 miles , 16 km
Cloud details: Overcast 3900 ft
2021/10/23 23:51 KVNY 232351Z 17009KT 10SM OVC039 19/12 A2985 RMK AO2 SLP102 T01940117 10217 20172 56004
 
KEDW - Edwards Afb, California, USA
Distance from station: NNE 33mi, 53km
Updated: Sat, 23-Oct-2021 4:58pm PDT
Partly cloudy
Partly cloudy
 Wind from W
Wind: W 28 mph , 44 km/h, Gust: 31 mph , 50 km/h
Temperature: 64°F , 18°C
Dew Point: 43°F , 6°C
Humidity: 46%
Barometer: 29.79 inHg , 1008.8 hPa
Clouds: Partly cloudy
Visibility: 60 miles , 96 km
Cloud details: Partly cloudy 25000 ft
2021/10/23 23:58 KEDW 232358Z 28024G27KT 60SM SCT250 18/06 A2979 RMK AO2A SLP078 T01790061 10226 20172 53000
KSMO - Santa Monica, California, USA
Distance from station: SSW 35mi, 57km
Updated: Sat, 23-Oct-2021 4:51pm PDT
Partly cloudy
Partly cloudy
 Wind from SW
Wind: SW 9 mph , 15 km/h
Temperature: 63°F , 17°C
Dew Point: 55°F , 13°C
Humidity: 77%
Barometer: 29.87 inHg , 1011.5 hPa
Clouds: Partly cloudy
Visibility: 10 miles , 16 km
Cloud details: Partly cloudy 5000 ft
2021/10/23 23:51 KSMO 232351Z 23008KT 10SM SCT050 17/13 A2987 RMK AO2 SLP113 T01720133 10189 20172 56005 $
 
KLAX - Los Angeles, California, USA
Distance from station: SSW 39mi, 63km
Updated: Sat, 23-Oct-2021 4:53pm PDT
Partly cloudy
Partly cloudy
 Wind from W
Wind: W 13 mph , 20 km/h
Temperature: 64°F , 18°C
Dew Point: 55°F , 13°C
Humidity: 73%
Barometer: 29.87 inHg , 1011.5 hPa
Clouds: Partly cloudy
Visibility: 10 miles , 16 km
Cloud details: Partly cloudy 1400 ft
Partly cloudy 2500 ft
2021/10/23 23:53 KLAX 232353Z 26011KT 10SM SCT014 SCT025 18/13 A2987 RMK AO2 SLP114 60000 T01780133 10200 20172 56005 $
KMHV - Mojave, California, USA
Distance from station: N 41mi, 66km
Updated: Fri, 22-Oct-2021 6:00am PDT
NOT Current
Clear
Clear
 Wind from calm
Wind: Calm
Temperature: 46°F , 8°C
Dew Point: 16°F , -9°C
Humidity: 29%
Barometer: 30.04 inHg , 1017.3 hPa
Clouds: Clear
Visibility: 9 miles , 14 km
2021/10/22 13:00 KMHV 221300Z AUTO 00000KT 9SM CLR 08/M09 A3004 RMK A01
 
KFUL - Fullerton, California, USA
Distance from station: SSE 44mi, 70km
Updated: Sat, 23-Oct-2021 4:53pm PDT
Mostly cloudy
Mostly cloudy
 Wind from SSW
Wind: SSW 8 mph , 13 km/h
Temperature: 66°F , 19°C
Dew Point: 55°F , 13°C
Humidity: 68%
Barometer: 29.86 inHg , 1011.2 hPa
Clouds: Mostly cloudy
Visibility: 10 miles , 16 km
Cloud details: Few Clouds 2500 ft
Mostly cloudy 4700 ft
2021/10/23 23:53 KFUL 232353Z 21007KT 10SM FEW025 BKN047 19/13 A2986 RMK AO2 SLP109 60001 T01940133 10206 20178 56011 $
KONT - Ontario, California, USA
Distance from station: SE 45mi, 72km
Updated: Sat, 23-Oct-2021 4:53pm PDT
Mostly cloudy
Mostly cloudy
 Wind from W
Wind: W 12 mph , 19 km/h
Temperature: 68°F , 20°C
Dew Point: 54°F , 12°C
Humidity: 60%
Barometer: 29.86 inHg , 1011.2 hPa
Clouds: Mostly cloudy
Visibility: 10 miles , 16 km
Cloud details: Few Clouds 2600 ft
Mostly cloudy 4400 ft
2021/10/23 23:53 KONT 232353Z 27010KT 10SM FEW026 BKN044 20/12 A2986 RMK AO2 SLP104 T02000117 10211 20172 56011
 
KLGB - Long Beach, California, USA
Distance from station: S 46mi, 74km
Updated: Sat, 23-Oct-2021 4:53pm PDT
Few Clouds
Few Clouds
 Wind from SSW
Wind: SSW 8 mph , 13 km/h
Temperature: 64°F , 18°C
Dew Point: 55°F , 13°C
Humidity: 73%
Barometer: 29.87 inHg , 1011.5 hPa
Clouds: Few Clouds
Visibility: 10 miles , 16 km
Cloud details: Few Clouds 2800 ft
2021/10/23 23:53 KLGB 232353Z 20007KT 10SM FEW028 18/13 A2987 RMK AO2 SLP114 T01830128 10189 20178 56011
KVCV - Victorville, California, USA
Distance from station: E 46mi, 74km
Updated: Sat, 23-Oct-2021 5:45pm PDT
Clear
Clear
 Wind from W
Wind: W 10 mph , 17 km/h
Temperature: 64°F , 18°C
Dew Point: 41°F , 5°C
Humidity: 43%
Barometer: 29.84 inHg , 1010.5 hPa
Clouds: Clear
Visibility: 10 miles , 16 km
2021/10/24 00:45 KVCV 240045Z AUTO 26009KT 10SM CLR 18/05 A2984
 
KTSP - Tehachapi, California, USA
Distance from station: NNW 48mi, 77km
Updated: Sat, 23-Oct-2021 5:35pm PDT
Mostly cloudy
Mostly cloudy
 Wind from W
Wind: W 23 mph , 37 km/h, Gust: 31 mph , 50 km/h
Temperature: 50°F , 10°C
Wind Chill: 43°F , 6°C
Dew Point: 41°F , 5°C
Humidity: 71%
Barometer: 29.93 inHg , 1013.5 hPa
Clouds: Mostly cloudy
Visibility: 10 miles , 16 km
Cloud details: Mostly cloudy 2100 ft
Mostly cloudy 2600 ft
2021/10/24 00:35 KTSP 240035Z AUTO 28020G27KT 10SM BKN021 BKN026 10/05 A2993 RMK AO2